sensor_id;sensor_type;location;lat;lon;timestamp;P1;durP1;ratioP1;P2;durP2;ratioP2
29788;SDS011;64899;42.660;23.268;2024-03-06T00:01:31;44.90;;;23.83;;
29788;SDS011;64899;42.660;23.268;2024-03-06T00:03:56;40.17;;;23.27;;
29788;SDS011;64899;42.660;23.268;2024-03-06T00:06:22;45.45;;;23.38;;
29788;SDS011;64899;42.660;23.268;2024-03-06T00:08:48;44.10;;;24.10;;
29788;SDS011;64899;42.660;23.268;2024-03-06T00:11:13;42.53;;;24.55;;
29788;SDS011;64899;42.660;23.268;2024-03-06T00:13:38;43.47;;;25.15;;
29788;SDS011;64899;42.660;23.268;2024-03-06T00:16:04;42.03;;;23.80;;
29788;SDS011;64899;42.660;23.268;2024-03-06T00:18:29;43.92;;;24.60;;
29788;SDS011;64899;42.660;23.268;2024-03-06T00:20:55;47.60;;;24.65;;
29788;SDS011;64899;42.660;23.268;2024-03-06T00:23:20;47.53;;;23.45;;
29788;SDS011;64899;42.660;23.268;2024-03-06T00:25:45;43.00;;;25.08;;
29788;SDS011;64899;42.660;23.268;2024-03-06T00:28:11;43.72;;;24.30;;
29788;SDS011;64899;42.660;23.268;2024-03-06T00:30:37;45.10;;;24.90;;
29788;SDS011;64899;42.660;23.268;2024-03-06T00:33:02;49.38;;;25.38;;
29788;SDS011;64899;42.660;23.268;2024-03-06T00:35:28;44.83;;;24.27;;
29788;SDS011;64899;42.660;23.268;2024-03-06T00:37:53;46.15;;;24.30;;
29788;SDS011;64899;42.660;23.268;2024-03-06T00:40:19;41.05;;;23.10;;
29788;SDS011;64899;42.660;23.268;2024-03-06T00:42:44;43.78;;;24.45;;
29788;SDS011;64899;42.660;23.268;2024-03-06T00:45:10;45.53;;;24.15;;
29788;SDS011;64899;42.660;23.268;2024-03-06T00:47:36;42.78;;;22.88;;
29788;SDS011;64899;42.660;23.268;2024-03-06T00:50:02;43.95;;;23.15;;
29788;SDS011;64899;42.660;23.268;2024-03-06T00:52:28;41.83;;;23.17;;
29788;SDS011;64899;42.660;23.268;2024-03-06T00:54:53;43.65;;;22.95;;
29788;SDS011;64899;42.660;23.268;2024-03-06T00:57:18;43.15;;;22.88;;
29788;SDS011;64899;42.660;23.268;2024-03-06T00:59:44;42.05;;;23.10;;
29788;SDS011;64899;42.660;23.268;2024-03-06T01:02:09;46.75;;;22.80;;
29788;SDS011;64899;42.660;23.268;2024-03-06T01:04:34;39.35;;;23.15;;
29788;SDS011;64899;42.660;23.268;2024-03-06T01:07:00;43.40;;;23.42;;
29788;SDS011;64899;42.660;23.268;2024-03-06T01:09:25;38.20;;;21.52;;
29788;SDS011;64899;42.660;23.268;2024-03-06T01:11:52;38.33;;;22.00;;
29788;SDS011;64899;42.660;23.268;2024-03-06T01:14:17;40.20;;;21.13;;
29788;SDS011;64899;42.660;23.268;2024-03-06T01:16:42;39.80;;;20.92;;
29788;SDS011;64899;42.660;23.268;2024-03-06T01:19:08;45.55;;;23.27;;
29788;SDS011;64899;42.660;23.268;2024-03-06T01:21:33;42.80;;;23.48;;
29788;SDS011;64899;42.660;23.268;2024-03-06T01:23:59;40.50;;;23.73;;
29788;SDS011;64899;42.660;23.268;2024-03-06T01:26:25;45.55;;;24.00;;
29788;SDS011;64899;42.660;23.268;2024-03-06T01:28:50;43.90;;;23.17;;
29788;SDS011;64899;42.660;23.268;2024-03-06T01:31:16;40.90;;;22.52;;
29788;SDS011;64899;42.660;23.268;2024-03-06T01:33:42;41.75;;;22.75;;
29788;SDS011;64899;42.660;23.268;2024-03-06T01:36:07;45.95;;;23.38;;
29788;SDS011;64899;42.660;23.268;2024-03-06T01:38:32;38.63;;;22.60;;
29788;SDS011;64899;42.660;23.268;2024-03-06T01:40:58;39.35;;;21.90;;
29788;SDS011;64899;42.660;23.268;2024-03-06T01:43:24;40.55;;;23.00;;
29788;SDS011;64899;42.660;23.268;2024-03-06T01:45:51;44.88;;;22.00;;
29788;SDS011;64899;42.660;23.268;2024-03-06T01:48:18;41.63;;;22.33;;
29788;SDS011;64899;42.660;23.268;2024-03-06T01:50:45;41.15;;;21.38;;
29788;SDS011;64899;42.660;23.268;2024-03-06T01:53:12;34.30;;;20.63;;
29788;SDS011;64899;42.660;23.268;2024-03-06T01:55:37;37.83;;;21.67;;
29788;SDS011;64899;42.660;23.268;2024-03-06T01:58:03;38.33;;;19.58;;
29788;SDS011;64899;42.660;23.268;2024-03-06T02:00:30;35.30;;;18.83;;
29788;SDS011;64899;42.660;23.268;2024-03-06T02:02:56;36.63;;;20.50;;
29788;SDS011;64899;42.660;23.268;2024-03-06T02:05:22;35.35;;;18.95;;
29788;SDS011;64899;42.660;23.268;2024-03-06T02:07:47;37.05;;;19.65;;
29788;SDS011;64899;42.660;23.268;2024-03-06T02:10:13;34.33;;;19.48;;
29788;SDS011;64899;42.660;23.268;2024-03-06T02:12:39;39.10;;;21.33;;
29788;SDS011;64899;42.660;23.268;2024-03-06T02:15:06;40.83;;;20.15;;
29788;SDS011;64899;42.660;23.268;2024-03-06T02:17:32;38.38;;;20.83;;
29788;SDS011;64899;42.660;23.268;2024-03-06T02:19:57;33.45;;;19.27;;
29788;SDS011;64899;42.660;23.268;2024-03-06T02:22:25;31.15;;;18.23;;
29788;SDS011;64899;42.660;23.268;2024-03-06T02:24:50;37.38;;;20.08;;
29788;SDS011;64899;42.660;23.268;2024-03-06T02:27:16;33.58;;;18.73;;
29788;SDS011;64899;42.660;23.268;2024-03-06T02:29:41;40.95;;;20.80;;
29788;SDS011;64899;42.660;23.268;2024-03-06T02:32:07;38.72;;;21.48;;
29788;SDS011;64899;42.660;23.268;2024-03-06T02:34:33;40.58;;;21.48;;
29788;SDS011;64899;42.660;23.268;2024-03-06T02:36:59;39.05;;;22.60;;
29788;SDS011;64899;42.660;23.268;2024-03-06T02:39:24;40.33;;;21.90;;
29788;SDS011;64899;42.660;23.268;2024-03-06T02:41:50;42.22;;;21.95;;
29788;SDS011;64899;42.660;23.268;2024-03-06T02:44:15;35.75;;;19.75;;
29788;SDS011;64899;42.660;23.268;2024-03-06T02:46:45;39.38;;;20.05;;
29788;SDS011;64899;42.660;23.268;2024-03-06T02:49:12;36.70;;;20.00;;
29788;SDS011;64899;42.660;23.268;2024-03-06T02:51:37;37.28;;;20.65;;
29788;SDS011;64899;42.660;23.268;2024-03-06T02:54:02;36.50;;;19.80;;
29788;SDS011;64899;42.660;23.268;2024-03-06T02:56:28;33.28;;;18.58;;
29788;SDS011;64899;42.660;23.268;2024-03-06T02:58:53;34.25;;;18.05;;
29788;SDS011;64899;42.660;23.268;2024-03-06T03:01:19;34.67;;;18.25;;
29788;SDS011;64899;42.660;23.268;2024-03-06T03:03:45;32.92;;;18.25;;
29788;SDS011;64899;42.660;23.268;2024-03-06T03:06:12;33.40;;;17.73;;
29788;SDS011;64899;42.660;23.268;2024-03-06T03:08:38;30.38;;;17.48;;
29788;SDS011;64899;42.660;23.268;2024-03-06T03:11:03;31.60;;;17.08;;
29788;SDS011;64899;42.660;23.268;2024-03-06T03:13:29;30.70;;;17.40;;
29788;SDS011;64899;42.660;23.268;2024-03-06T03:15:55;33.03;;;17.88;;
29788;SDS011;64899;42.660;23.268;2024-03-06T03:18:21;31.85;;;16.45;;
29788;SDS011;64899;42.660;23.268;2024-03-06T03:20:46;31.45;;;18.02;;
29788;SDS011;64899;42.660;23.268;2024-03-06T03:23:12;31.27;;;17.45;;
29788;SDS011;64899;42.660;23.268;2024-03-06T03:25:40;32.38;;;15.52;;
29788;SDS011;64899;42.660;23.268;2024-03-06T03:28:06;48.15;;;24.55;;
29788;SDS011;64899;42.660;23.268;2024-03-06T03:30:31;50.53;;;26.58;;
29788;SDS011;64899;42.660;23.268;2024-03-06T03:32:57;44.78;;;24.38;;
29788;SDS011;64899;42.660;23.268;2024-03-06T03:35:22;46.30;;;23.67;;
29788;SDS011;64899;42.660;23.268;2024-03-06T03:37:50;43.45;;;23.20;;
29788;SDS011;64899;42.660;23.268;2024-03-06T03:40:17;42.30;;;21.75;;
29788;SDS011;64899;42.660;23.268;2024-03-06T03:42:43;44.45;;;22.30;;
29788;SDS011;64899;42.660;23.268;2024-03-06T03:45:09;44.33;;;22.98;;
29788;SDS011;64899;42.660;23.268;2024-03-06T03:47:34;40.17;;;21.63;;
29788;SDS011;64899;42.660;23.268;2024-03-06T03:49:59;38.28;;;21.05;;
29788;SDS011;64899;42.660;23.268;2024-03-06T03:52:25;45.60;;;20.67;;
29788;SDS011;64899;42.660;23.268;2024-03-06T03:54:50;37.50;;;21.05;;
29788;SDS011;64899;42.660;23.268;2024-03-06T03:57:15;34.50;;;19.13;;
29788;SDS011;64899;42.660;23.268;2024-03-06T03:59:42;35.60;;;19.17;;
29788;SDS011;64899;42.660;23.268;2024-03-06T04:02:08;33.40;;;19.00;;
29788;SDS011;64899;42.660;23.268;2024-03-06T04:04:33;33.58;;;18.35;;
29788;SDS011;64899;42.660;23.268;2024-03-06T04:06:59;32.92;;;18.58;;
29788;SDS011;64899;42.660;23.268;2024-03-06T04:09:26;32.85;;;18.65;;
29788;SDS011;64899;42.660;23.268;2024-03-06T04:11:52;30.80;;;18.95;;
29788;SDS011;64899;42.660;23.268;2024-03-06T04:14:18;34.10;;;17.80;;
29788;SDS011;64899;42.660;23.268;2024-03-06T04:16:45;32.53;;;19.42;;
29788;SDS011;64899;42.660;23.268;2024-03-06T04:19:10;35.35;;;19.70;;
29788;SDS011;64899;42.660;23.268;2024-03-06T04:21:40;38.45;;;19.50;;
29788;SDS011;64899;42.660;23.268;2024-03-06T04:24:07;36.10;;;18.30;;
29788;SDS011;64899;42.660;23.268;2024-03-06T04:26:32;37.47;;;18.70;;
29788;SDS011;64899;42.660;23.268;2024-03-06T04:28:57;35.20;;;18.95;;
29788;SDS011;64899;42.660;23.268;2024-03-06T04:31:23;34.63;;;18.10;;
29788;SDS011;64899;42.660;23.268;2024-03-06T04:33:48;41.20;;;18.52;;
29788;SDS011;64899;42.660;23.268;2024-03-06T04:36:13;35.45;;;19.88;;
29788;SDS011;64899;42.660;23.268;2024-03-06T04:38:39;33.50;;;19.80;;
29788;SDS011;64899;42.660;23.268;2024-03-06T04:41:05;37.97;;;20.75;;
29788;SDS011;64899;42.660;23.268;2024-03-06T04:43:31;33.03;;;20.52;;
29788;SDS011;64899;42.660;23.268;2024-03-06T04:45:57;38.90;;;22.55;;
29788;SDS011;64899;42.660;23.268;2024-03-06T04:48:22;42.17;;;23.08;;
29788;SDS011;64899;42.660;23.268;2024-03-06T04:50:47;41.45;;;22.38;;
29788;SDS011;64899;42.660;23.268;2024-03-06T04:53:13;41.10;;;21.70;;
29788;SDS011;64899;42.660;23.268;2024-03-06T04:55:39;36.15;;;22.52;;
29788;SDS011;64899;42.660;23.268;2024-03-06T04:58:04;43.63;;;25.05;;
29788;SDS011;64899;42.660;23.268;2024-03-06T05:00:30;39.33;;;23.60;;
29788;SDS011;64899;42.660;23.268;2024-03-06T05:02:55;42.22;;;25.13;;
29788;SDS011;64899;42.660;23.268;2024-03-06T05:05:21;43.78;;;26.25;;
29788;SDS011;64899;42.660;23.268;2024-03-06T05:07:47;46.40;;;25.65;;
29788;SDS011;64899;42.660;23.268;2024-03-06T05:10:12;46.70;;;26.08;;
29788;SDS011;64899;42.660;23.268;2024-03-06T05:12:38;41.85;;;21.83;;
29788;SDS011;64899;42.660;23.268;2024-03-06T05:15:03;38.25;;;23.85;;
29788;SDS011;64899;42.660;23.268;2024-03-06T05:17:29;44.47;;;24.65;;
29788;SDS011;64899;42.660;23.268;2024-03-06T05:19:54;45.85;;;24.40;;
29788;SDS011;64899;42.660;23.268;2024-03-06T05:22:20;48.30;;;24.45;;
29788;SDS011;64899;42.660;23.268;2024-03-06T05:24:46;46.25;;;23.38;;
29788;SDS011;64899;42.660;23.268;2024-03-06T05:27:11;45.17;;;25.13;;
29788;SDS011;64899;42.660;23.268;2024-03-06T05:29:42;45.47;;;23.17;;
29788;SDS011;64899;42.660;23.268;2024-03-06T05:32:08;41.13;;;23.40;;
29788;SDS011;64899;42.660;23.268;2024-03-06T05:34:34;40.03;;;22.90;;
29788;SDS011;64899;42.660;23.268;2024-03-06T05:36:59;38.00;;;21.77;;
29788;SDS011;64899;42.660;23.268;2024-03-06T05:39:26;40.40;;;21.52;;
29788;SDS011;64899;42.660;23.268;2024-03-06T05:41:53;37.78;;;19.77;;
29788;SDS011;64899;42.660;23.268;2024-03-06T05:44:19;39.55;;;19.92;;
29788;SDS011;64899;42.660;23.268;2024-03-06T05:46:45;41.00;;;19.63;;
29788;SDS011;64899;42.660;23.268;2024-03-06T05:49:12;36.20;;;19.63;;
29788;SDS011;64899;42.660;23.268;2024-03-06T05:51:37;37.47;;;18.55;;
29788;SDS011;64899;42.660;23.268;2024-03-06T05:54:03;34.95;;;17.98;;
29788;SDS011;64899;42.660;23.268;2024-03-06T05:56:29;33.05;;;17.27;;
29788;SDS011;64899;42.660;23.268;2024-03-06T05:58:55;31.70;;;18.20;;
29788;SDS011;64899;42.660;23.268;2024-03-06T06:01:20;32.75;;;18.58;;
29788;SDS011;64899;42.660;23.268;2024-03-06T06:03:47;36.42;;;18.13;;
29788;SDS011;64899;42.660;23.268;2024-03-06T06:06:16;34.38;;;18.88;;
29788;SDS011;64899;42.660;23.268;2024-03-06T06:08:41;35.13;;;18.13;;
29788;SDS011;64899;42.660;23.268;2024-03-06T06:11:07;34.60;;;17.45;;
29788;SDS011;64899;42.660;23.268;2024-03-06T06:13:33;36.70;;;18.30;;
29788;SDS011;64899;42.660;23.268;2024-03-06T06:15:58;32.20;;;17.35;;
29788;SDS011;64899;42.660;23.268;2024-03-06T06:18:24;35.40;;;18.65;;
29788;SDS011;64899;42.660;23.268;2024-03-06T06:20:49;34.40;;;18.38;;
29788;SDS011;64899;42.660;23.268;2024-03-06T06:23:14;42.55;;;19.55;;
29788;SDS011;64899;42.660;23.268;2024-03-06T06:25:40;44.53;;;20.27;;
29788;SDS011;64899;42.660;23.268;2024-03-06T06:28:05;42.17;;;19.85;;
29788;SDS011;64899;42.660;23.268;2024-03-06T06:30:31;40.78;;;19.90;;
29788;SDS011;64899;42.660;23.268;2024-03-06T06:32:56;45.03;;;21.15;;
29788;SDS011;64899;42.660;23.268;2024-03-06T06:35:22;47.20;;;21.45;;
29788;SDS011;64899;42.660;23.268;2024-03-06T06:37:47;46.58;;;21.48;;
29788;SDS011;64899;42.660;23.268;2024-03-06T06:40:13;39.97;;;22.15;;
29788;SDS011;64899;42.660;23.268;2024-03-06T06:42:43;44.33;;;20.52;;
29788;SDS011;64899;42.660;23.268;2024-03-06T06:45:12;43.22;;;22.23;;
29788;SDS011;64899;42.660;23.268;2024-03-06T06:47:37;45.30;;;20.05;;
29788;SDS011;64899;42.660;23.268;2024-03-06T06:50:04;44.38;;;21.60;;
29788;SDS011;64899;42.660;23.268;2024-03-06T06:52:30;38.60;;;21.30;;
29788;SDS011;64899;42.660;23.268;2024-03-06T06:54:58;42.25;;;22.75;;
29788;SDS011;64899;42.660;23.268;2024-03-06T06:57:24;44.60;;;21.55;;
29788;SDS011;64899;42.660;23.268;2024-03-06T06:59:49;38.70;;;20.58;;
29788;SDS011;64899;42.660;23.268;2024-03-06T07:02:14;45.22;;;21.25;;
29788;SDS011;64899;42.660;23.268;2024-03-06T07:04:40;41.40;;;21.83;;
29788;SDS011;64899;42.660;23.268;2024-03-06T07:07:05;37.53;;;20.65;;
29788;SDS011;64899;42.660;23.268;2024-03-06T07:09:30;45.72;;;21.40;;
29788;SDS011;64899;42.660;23.268;2024-03-06T07:11:56;39.10;;;21.25;;
29788;SDS011;64899;42.660;23.268;2024-03-06T07:14:21;42.67;;;21.80;;
29788;SDS011;64899;42.660;23.268;2024-03-06T07:16:47;38.55;;;20.70;;
29788;SDS011;64899;42.660;23.268;2024-03-06T07:19:12;43.28;;;22.60;;
29788;SDS011;64899;42.660;23.268;2024-03-06T07:21:38;45.05;;;22.65;;
29788;SDS011;64899;42.660;23.268;2024-03-06T07:24:04;41.28;;;21.00;;
29788;SDS011;64899;42.660;23.268;2024-03-06T07:26:31;41.38;;;21.33;;
29788;SDS011;64899;42.660;23.268;2024-03-06T07:28:57;43.75;;;18.83;;
29788;SDS011;64899;42.660;23.268;2024-03-06T07:31:23;46.65;;;21.98;;
29788;SDS011;64899;42.660;23.268;2024-03-06T07:33:49;44.35;;;22.15;;
29788;SDS011;64899;42.660;23.268;2024-03-06T07:36:15;45.65;;;21.25;;
29788;SDS011;64899;42.660;23.268;2024-03-06T07:38:41;46.75;;;20.98;;
29788;SDS011;64899;42.660;23.268;2024-03-06T07:41:07;39.95;;;20.15;;
29788;SDS011;64899;42.660;23.268;2024-03-06T07:43:32;42.78;;;21.77;;
29788;SDS011;64899;42.660;23.268;2024-03-06T07:45:57;37.72;;;20.67;;
29788;SDS011;64899;42.660;23.268;2024-03-06T07:48:23;35.97;;;18.83;;
29788;SDS011;64899;42.660;23.268;2024-03-06T07:50:49;39.33;;;21.45;;
29788;SDS011;64899;42.660;23.268;2024-03-06T07:53:14;38.08;;;21.10;;
29788;SDS011;64899;42.660;23.268;2024-03-06T07:55:40;36.95;;;19.95;;
29788;SDS011;64899;42.660;23.268;2024-03-06T07:58:06;36.95;;;19.33;;
29788;SDS011;64899;42.660;23.268;2024-03-06T08:00:33;38.15;;;19.05;;
29788;SDS011;64899;42.660;23.268;2024-03-06T08:02:58;37.25;;;20.08;;
29788;SDS011;64899;42.660;23.268;2024-03-06T08:05:25;38.78;;;20.10;;
29788;SDS011;64899;42.660;23.268;2024-03-06T08:07:51;36.53;;;19.27;;
29788;SDS011;64899;42.660;23.268;2024-03-06T08:10:16;39.80;;;21.35;;
29788;SDS011;64899;42.660;23.268;2024-03-06T08:12:44;36.53;;;19.65;;
29788;SDS011;64899;42.660;23.268;2024-03-06T08:15:10;34.88;;;19.85;;
29788;SDS011;64899;42.660;23.268;2024-03-06T08:17:38;41.03;;;20.33;;
29788;SDS011;64899;42.660;23.268;2024-03-06T08:20:04;38.00;;;20.23;;
29788;SDS011;64899;42.660;23.268;2024-03-06T08:22:34;36.55;;;20.27;;
29788;SDS011;64899;42.660;23.268;2024-03-06T08:25:04;35.67;;;19.88;;
29788;SDS011;64899;42.660;23.268;2024-03-06T08:27:29;44.00;;;21.02;;
29788;SDS011;64899;42.660;23.268;2024-03-06T08:29:55;32.97;;;18.92;;
29788;SDS011;64899;42.660;23.268;2024-03-06T08:32:20;35.85;;;20.15;;
29788;SDS011;64899;42.660;23.268;2024-03-06T08:34:46;35.10;;;18.63;;
29788;SDS011;64899;42.660;23.268;2024-03-06T08:37:11;35.53;;;19.52;;
29788;SDS011;64899;42.660;23.268;2024-03-06T08:39:38;38.00;;;19.65;;
29788;SDS011;64899;42.660;23.268;2024-03-06T08:42:04;38.83;;;18.95;;
29788;SDS011;64899;42.660;23.268;2024-03-06T08:44:30;40.38;;;19.02;;
29788;SDS011;64899;42.660;23.268;2024-03-06T08:46:55;33.65;;;19.33;;
29788;SDS011;64899;42.660;23.268;2024-03-06T08:49:21;35.55;;;19.40;;
29788;SDS011;64899;42.660;23.268;2024-03-06T08:51:46;33.00;;;18.45;;
29788;SDS011;64899;42.660;23.268;2024-03-06T08:54:11;33.35;;;19.30;;
29788;SDS011;64899;42.660;23.268;2024-03-06T08:56:37;38.13;;;19.60;;
29788;SDS011;64899;42.660;23.268;2024-03-06T08:59:02;37.28;;;19.75;;
29788;SDS011;64899;42.660;23.268;2024-03-06T09:01:27;38.60;;;20.80;;
29788;SDS011;64899;42.660;23.268;2024-03-06T09:03:53;33.50;;;19.45;;
29788;SDS011;64899;42.660;23.268;2024-03-06T09:06:18;35.40;;;18.92;;
29788;SDS011;64899;42.660;23.268;2024-03-06T09:08:44;34.58;;;19.83;;
29788;SDS011;64899;42.660;23.268;2024-03-06T09:11:09;36.85;;;18.98;;
29788;SDS011;64899;42.660;23.268;2024-03-06T09:13:34;36.40;;;18.40;;
29788;SDS011;64899;42.660;23.268;2024-03-06T09:16:01;39.20;;;19.13;;
29788;SDS011;64899;42.660;23.268;2024-03-06T09:18:27;39.03;;;20.13;;
29788;SDS011;64899;42.660;23.268;2024-03-06T09:20:52;33.72;;;18.92;;
29788;SDS011;64899;42.660;23.268;2024-03-06T09:23:18;38.15;;;19.80;;
29788;SDS011;64899;42.660;23.268;2024-03-06T09:25:43;34.55;;;19.65;;
29788;SDS011;64899;42.660;23.268;2024-03-06T09:28:08;39.03;;;20.00;;
29788;SDS011;64899;42.660;23.268;2024-03-06T09:30:34;31.85;;;19.77;;
29788;SDS011;64899;42.660;23.268;2024-03-06T09:32:59;31.90;;;18.50;;
29788;SDS011;64899;42.660;23.268;2024-03-06T09:35:24;44.25;;;19.15;;
29788;SDS011;64899;42.660;23.268;2024-03-06T09:37:50;34.38;;;17.73;;
29788;SDS011;64899;42.660;23.268;2024-03-06T09:40:22;30.38;;;17.05;;
29788;SDS011;64899;42.660;23.268;2024-03-06T09:42:48;33.95;;;16.65;;
29788;SDS011;64899;42.660;23.268;2024-03-06T09:45:14;33.45;;;16.13;;
29788;SDS011;64899;42.660;23.268;2024-03-06T09:47:40;29.30;;;16.40;;
29788;SDS011;64899;42.660;23.268;2024-03-06T09:50:08;29.55;;;16.98;;
29788;SDS011;64899;42.660;23.268;2024-03-06T09:52:34;27.60;;;16.55;;
29788;SDS011;64899;42.660;23.268;2024-03-06T09:55:01;27.92;;;14.00;;
29788;SDS011;64899;42.660;23.268;2024-03-06T09:57:27;29.38;;;14.35;;
29788;SDS011;64899;42.660;23.268;2024-03-06T09:59:53;23.33;;;13.45;;
29788;SDS011;64899;42.660;23.268;2024-03-06T10:02:22;29.13;;;14.40;;
29788;SDS011;64899;42.660;23.268;2024-03-06T10:04:55;32.53;;;16.67;;
29788;SDS011;64899;42.660;23.268;2024-03-06T10:07:22;28.80;;;15.52;;
29788;SDS011;64899;42.660;23.268;2024-03-06T10:09:47;28.00;;;15.15;;
29788;SDS011;64899;42.660;23.268;2024-03-06T10:12:12;30.08;;;15.20;;
29788;SDS011;64899;42.660;23.268;2024-03-06T10:14:48;26.27;;;14.07;;
29788;SDS011;64899;42.660;23.268;2024-03-06T10:17:20;28.83;;;14.05;;
29788;SDS011;64899;42.660;23.268;2024-03-06T10:19:48;22.40;;;13.63;;
29788;SDS011;64899;42.660;23.268;2024-03-06T10:22:16;26.75;;;12.15;;
29788;SDS011;64899;42.660;23.268;2024-03-06T10:24:42;23.27;;;12.43;;
29788;SDS011;64899;42.660;23.268;2024-03-06T10:27:08;22.65;;;11.20;;
29788;SDS011;64899;42.660;23.268;2024-03-06T10:29:34;26.67;;;12.68;;
29788;SDS011;64899;42.660;23.268;2024-03-06T10:32:00;30.13;;;15.23;;
29788;SDS011;64899;42.660;23.268;2024-03-06T10:34:26;28.75;;;14.75;;
29788;SDS011;64899;42.660;23.268;2024-03-06T10:36:56;25.17;;;12.77;;
29788;SDS011;64899;42.660;23.268;2024-03-06T10:39:22;21.92;;;12.02;;
29788;SDS011;64899;42.660;23.268;2024-03-06T10:41:55;21.75;;;11.23;;
29788;SDS011;64899;42.660;23.268;2024-03-06T10:44:22;19.75;;;10.48;;
29788;SDS011;64899;42.660;23.268;2024-03-06T10:47:01;21.77;;;11.88;;
29788;SDS011;64899;42.660;23.268;2024-03-06T10:49:27;21.02;;;10.98;;
29788;SDS011;64899;42.660;23.268;2024-03-06T10:52:01;22.88;;;12.10;;
29788;SDS011;64899;42.660;23.268;2024-03-06T10:54:30;20.77;;;12.07;;
29788;SDS011;64899;42.660;23.268;2024-03-06T10:56:57;24.27;;;12.23;;
29788;SDS011;64899;42.660;23.268;2024-03-06T10:59:26;24.00;;;11.20;;
29788;SDS011;64899;42.660;23.268;2024-03-06T11:01:55;20.42;;;11.15;;
29788;SDS011;64899;42.660;23.268;2024-03-06T11:04:27;22.13;;;10.70;;
29788;SDS011;64899;42.660;23.268;2024-03-06T11:06:57;19.70;;;10.48;;
29788;SDS011;64899;42.660;23.268;2024-03-06T11:09:24;17.73;;;10.35;;
29788;SDS011;64899;42.660;23.268;2024-03-06T11:11:51;17.00;;;9.70;;
29788;SDS011;64899;42.660;23.268;2024-03-06T11:14:17;19.65;;;9.98;;
29788;SDS011;64899;42.660;23.268;2024-03-06T11:16:59;19.13;;;9.15;;
29788;SDS011;64899;42.660;23.268;2024-03-06T11:19:29;15.18;;;8.98;;
29788;SDS011;64899;42.660;23.268;2024-03-06T11:21:55;19.23;;;9.23;;
29788;SDS011;64899;42.660;23.268;2024-03-06T11:24:22;15.35;;;8.55;;
29788;SDS011;64899;42.660;23.268;2024-03-06T11:26:49;11.50;;;7.97;;
29788;SDS011;64899;42.660;23.268;2024-03-06T11:29:15;9.82;;;7.30;;
29788;SDS011;64899;42.660;23.268;2024-03-06T11:34:28;9.38;;;7.00;;
29788;SDS011;64899;42.660;23.268;2024-03-06T11:36:58;10.30;;;7.25;;
29788;SDS011;64899;42.660;23.268;2024-03-06T11:39:27;10.73;;;7.65;;
29788;SDS011;64899;42.660;23.268;2024-03-06T11:41:54;19.02;;;8.35;;
29788;SDS011;64899;42.660;23.268;2024-03-06T11:44:20;9.75;;;7.72;;
29788;SDS011;64899;42.660;23.268;2024-03-06T11:46:47;13.85;;;7.50;;
29788;SDS011;64899;42.660;23.268;2024-03-06T11:49:20;6.20;;;4.85;;
29788;SDS011;64899;42.660;23.268;2024-03-06T11:51:49;9.32;;;5.45;;
29788;SDS011;64899;42.660;23.268;2024-03-06T11:54:18;8.07;;;5.25;;
29788;SDS011;64899;42.660;23.268;2024-03-06T11:56:48;7.93;;;5.32;;
29788;SDS011;64899;42.660;23.268;2024-03-06T11:59:15;7.60;;;5.00;;
29788;SDS011;64899;42.660;23.268;2024-03-06T12:01:41;10.48;;;5.82;;
29788;SDS011;64899;42.660;23.268;2024-03-06T12:04:06;5.70;;;4.90;;
29788;SDS011;64899;42.660;23.268;2024-03-06T12:06:32;8.38;;;5.60;;
29788;SDS011;64899;42.660;23.268;2024-03-06T12:08:57;6.82;;;5.50;;
29788;SDS011;64899;42.660;23.268;2024-03-06T12:11:23;7.40;;;5.60;;
29788;SDS011;64899;42.660;23.268;2024-03-06T12:13:50;9.60;;;5.03;;
29788;SDS011;64899;42.660;23.268;2024-03-06T12:16:16;7.10;;;4.85;;
29788;SDS011;64899;42.660;23.268;2024-03-06T12:18:42;8.55;;;5.43;;
29788;SDS011;64899;42.660;23.268;2024-03-06T12:21:07;8.70;;;5.10;;
29788;SDS011;64899;42.660;23.268;2024-03-06T12:23:33;7.45;;;5.40;;
29788;SDS011;64899;42.660;23.268;2024-03-06T12:26:02;6.60;;;4.10;;
29788;SDS011;64899;42.660;23.268;2024-03-06T12:28:31;7.70;;;5.15;;
29788;SDS011;64899;42.660;23.268;2024-03-06T12:30:57;8.88;;;4.88;;
29788;SDS011;64899;42.660;23.268;2024-03-06T12:33:26;9.35;;;5.00;;
29788;SDS011;64899;42.660;23.268;2024-03-06T12:36:04;7.60;;;4.35;;
29788;SDS011;64899;42.660;23.268;2024-03-06T12:38:31;7.72;;;4.43;;
29788;SDS011;64899;42.660;23.268;2024-03-06T12:40:57;5.20;;;3.83;;
29788;SDS011;64899;42.660;23.268;2024-03-06T12:43:23;6.32;;;4.07;;
29788;SDS011;64899;42.660;23.268;2024-03-06T12:45:49;10.32;;;4.40;;
29788;SDS011;64899;42.660;23.268;2024-03-06T12:48:14;9.68;;;4.43;;
29788;SDS011;64899;42.660;23.268;2024-03-06T12:50:40;10.23;;;5.40;;
29788;SDS011;64899;42.660;23.268;2024-03-06T12:53:07;8.57;;;5.53;;
29788;SDS011;64899;42.660;23.268;2024-03-06T12:55:32;7.50;;;5.32;;
29788;SDS011;64899;42.660;23.268;2024-03-06T12:57:58;10.40;;;5.68;;
29788;SDS011;64899;42.660;23.268;2024-03-06T13:00:24;7.13;;;5.20;;
29788;SDS011;64899;42.660;23.268;2024-03-06T13:02:49;9.60;;;5.72;;
29788;SDS011;64899;42.660;23.268;2024-03-06T13:05:17;11.10;;;5.47;;
29788;SDS011;64899;42.660;23.268;2024-03-06T13:07:44;10.88;;;5.38;;
29788;SDS011;64899;42.660;23.268;2024-03-06T13:10:10;13.07;;;4.80;;
29788;SDS011;64899;42.660;23.268;2024-03-06T13:12:36;7.43;;;4.90;;
29788;SDS011;64899;42.660;23.268;2024-03-06T13:15:02;11.77;;;5.05;;
29788;SDS011;64899;42.660;23.268;2024-03-06T13:17:29;10.85;;;5.45;;
29788;SDS011;64899;42.660;23.268;2024-03-06T13:19:54;10.98;;;5.68;;
29788;SDS011;64899;42.660;23.268;2024-03-06T13:22:21;11.18;;;5.97;;
29788;SDS011;64899;42.660;23.268;2024-03-06T13:24:47;8.05;;;5.00;;
29788;SDS011;64899;42.660;23.268;2024-03-06T13:27:13;13.38;;;5.65;;
29788;SDS011;64899;42.660;23.268;2024-03-06T13:29:38;6.97;;;5.07;;
29788;SDS011;64899;42.660;23.268;2024-03-06T13:32:05;9.10;;;5.95;;
29788;SDS011;64899;42.660;23.268;2024-03-06T13:34:31;12.98;;;5.60;;
29788;SDS011;64899;42.660;23.268;2024-03-06T13:36:57;10.15;;;5.68;;
29788;SDS011;64899;42.660;23.268;2024-03-06T13:39:23;8.82;;;5.20;;
29788;SDS011;64899;42.660;23.268;2024-03-06T13:41:48;12.02;;;5.30;;
29788;SDS011;64899;42.660;23.268;2024-03-06T13:44:14;9.55;;;5.28;;
29788;SDS011;64899;42.660;23.268;2024-03-06T13:46:39;11.13;;;5.68;;
29788;SDS011;64899;42.660;23.268;2024-03-06T13:49:05;8.80;;;5.63;;
29788;SDS011;64899;42.660;23.268;2024-03-06T13:51:30;7.13;;;4.93;;
29788;SDS011;64899;42.660;23.268;2024-03-06T13:53:56;8.27;;;5.07;;
29788;SDS011;64899;42.660;23.268;2024-03-06T13:56:21;12.82;;;6.00;;
29788;SDS011;64899;42.660;23.268;2024-03-06T13:58:47;9.57;;;5.82;;
29788;SDS011;64899;42.660;23.268;2024-03-06T14:01:12;10.30;;;5.22;;
29788;SDS011;64899;42.660;23.268;2024-03-06T14:03:37;10.50;;;6.00;;
29788;SDS011;64899;42.660;23.268;2024-03-06T14:06:04;14.98;;;4.97;;
29788;SDS011;64899;42.660;23.268;2024-03-06T14:08:32;7.80;;;5.25;;
29788;SDS011;64899;42.660;23.268;2024-03-06T14:10:57;11.13;;;5.00;;